Aérodrome :
LOGIN :

S'inscrire | Disclaimer

   EN    FR    IT 

 










Légende :    VFR   VFR Marginal   IFR   IFR Intensif   IFR Très Intensif
Visi : 
Plafond : 
>= 8 km
>= 3000ft
5 à 8 km
1000 à 3000 ft
1500m à 5 km
500 à 1000 ft
800 à 1500m
200 à 500 ft
< 800m
< 200 ft
Symboles :   Orages  Brouillard  Fortes neiges  Fortes précipitations  Vent > 20 kt
SIGMETs :   Divers  Orages  Givrage  Turbulence  Onde Orograph.  Cendres Volcan.







- Altitude de l'aérodrome : 16 ft
- Code IATA : EAS


LESO - San Sebastian Fuenterrabia

DERNIER METAR :
  • 211830Z VRB01KT 0800 R22/1900U FG VV001 16/15 Q1023

METARs EXPIRÉS :
  • 211800Z 00000KT 1000 R22/P2000 BR OVC002 16/15 Q1022
  • 211730Z VRB02KT 1000 R22/1900N BR OVC002 15/15 Q1022
  • 211700Z VRB02KT 0900 R22/1700N FG VV001 16/15 Q1022
  • 211630Z 01003KT 300V070 0900 R22/1700N FG VV001 16/15 Q1022
  • 211600Z 05005KT 360V080 0800 R22/1700D FG BKN001 16/16 Q1022
  • 211530Z 06005KT 1000 R22/1900N BR BCFG BKN001 16/16 Q1022

TAF TAF LESO
Valide du 21 à 18h jusqu'au 22 à 18h UTC


211700Z 2118/2218 VRB05KT 8000 BKN015 TX19/2214Z TN14/2207Z
TEMPO 2118/2208 3000 BR BKN005
TEMPO 2121/2206 1500 BCFG BKN001
PROB40
TEMPO 2203/2208 0800 FG VV001
TEMPO 2210/2218 35010KT
Pas de NOTAMs connus pour ce terrain.
1 SIGMET publié pour la FIR Madrid (LECM) :
 
Orages noyés dans la masse
LECM SIGMET 9 VALID 211744/211930 LEVA
LECM MADRID FIR/UIR EMBD TS OBS AT 1744Z WI N4040 W00430 - N3920 W00310 - N38 W004 - N40 W00610 - N4040 W00430 TOP FL360 MOV NW NC=



MET'MAP, la Météo Aéronautique d'un coup d'oeil ! - Copyright ORBIFLY Décembre 2007 - Disclaimer

ORBIFLY MET'MAP TEAM :

Programmation & Développement : Alexandra Zaïnal
Conception & Développement : Baudouin d'Aumeries
Co-Programmation & Développement : Marc-Olivier Méhu
Soutien technique & logistique : Manuel Goepfert

Contact : metmap@orbifly.com




SOURCES & CREDITS :

   NOAA